This is the latest recevied weather packets stored in our database for station/object VR2MW-X. If no packets are shown the sender has not sent any weather packets the latest 1 day(s).
| Time | Temp. | Humidity | Pressure | Rain* | Wind** | Luminosity | Snow |
|---|---|---|---|---|---|---|---|
| 1778017833 | 21.11° C | 90% | 1012.6 hPa | - | - | - | - |
| 1778017222 | 21.11° C | 90% | 1012.6 hPa | - | - | - | - |
| 1778016612 | 21.11° C | 88% | 1012.6 hPa | - | - | - | - |
| 1778015999 | 21.11° C | 90% | 1012.6 hPa | - | - | - | - |
| 1778015389 | 21.11° C | 88% | 1012.6 hPa | - | - | - | - |
| 1778014779 | 22.22° C | 88% | 1012.5 hPa | - | - | - | - |
| 1778014168 | 22.22° C | 86% | 1012.3 hPa | - | - | - | - |
| 1778013558 | 22.22° C | 86% | 1012.3 hPa | - | - | - | - |
| 1778012947 | 22.22° C | 86% | 1012.2 hPa | - | - | - | - |
| 1778012337 | 21.11° C | 89% | 1012.3 hPa | - | - | - | - |
| 1778011726 | 21.11° C | 89% | 1012.2 hPa | - | - | - | - |
| 1778011116 | 21.11° C | 89% | 1012.2 hPa | - | - | - | - |
| 1778010506 | 21.11° C | 89% | 1012.2 hPa | - | - | - | - |
| 1778009895 | 21.11° C | 90% | 1012.2 hPa | - | - | - | - |
| 1778009284 | 21.11° C | 90% | 1012.2 hPa | - | - | - | - |
| 1778008674 | 21.11° C | 90% | 1012.2 hPa | - | - | - | - |
| 1778007453 | 21.11° C | 90% | 1012.1 hPa | - | - | - | - |
| 1778006842 | 21.11° C | 89% | 1012.2 hPa | - | - | - | - |
| 1778006232 | 21.11° C | 89% | 1012.2 hPa | - | - | - | - |
| 1778005622 | 21.11° C | 90% | 1012.2 hPa | - | - | - | - |
| 1778005011 | 21.11° C | 92% | 1012.3 hPa | - | - | - | - |
| 1778004401 | 21.11° C | 91% | 1012.2 hPa | - | - | - | - |
| 1778003790 | 21.11° C | 93% | 1012.5 hPa | - | - | - | - |
| 1778003179 | 21.11° C | 93% | 1012.5 hPa | - | - | - | - |
| 1778002569 | 21.11° C | 93% | 1012.6 hPa | - | - | - | - |
* Rain since midnight (hover to see other rain measurements)
** Current wind speed in m/s (hover to see current wind gust speed)